Time;durP1;ratioP1;P1;durP2;ratioP2;P2;SDS_P1;SDS_P2;PMS_P1;PMS_P2;Temp;Humidity;BMP_temperature;BMP_pressure;BME280_temperature;BME280_humidity;BME280_pressure;Samples;Min_cycle;Max_cycle;Signal;HPM_P1;HPM_P2
2023/08/26 00:02:36;;;;;;;10.85;4.90;;;;;;;23.13;100.00;99995.03;5588915;31;33724;-68
2023/08/26 00:05:39;;;;;;;9.98;4.93;;;;;;;23.11;100.00;99989.88;5587779;31;34564;-67
2023/08/26 00:08:42;;;;;;;8.68;4.50;;;;;;;23.12;100.00;99985.28;5588499;31;34451;-67
2023/08/26 00:11:45;;;;;;;11.77;5.15;;;;;;;23.05;100.00;99988.19;5588328;31;33917;-68
2023/08/26 00:14:47;;;;;;;11.15;4.97;;;;;;;22.98;100.00;99984.09;5588349;31;34677;-68
2023/08/26 00:17:50;;;;;;;9.82;4.70;;;;;;;22.95;100.00;99975.41;5588288;31;34605;-68
2023/08/26 00:20:53;;;;;;;10.32;5.07;;;;;;;22.91;100.00;99976.19;5588275;31;33999;-68
2023/08/26 00:23:56;;;;;;;10.13;5.12;;;;;;;22.86;100.00;99981.53;5587396;31;33973;-68
2023/08/26 00:26:59;;;;;;;7.43;4.70;;;;;;;22.83;100.00;99985.59;5588439;31;33719;-68
2023/08/26 00:30:02;;;;;;;11.32;4.60;;;;;;;22.80;100.00;99985.31;5590771;31;34498;-68
2023/08/26 00:33:06;;;;;;;9.20;4.80;;;;;;;22.80;100.00;99979.88;5590726;31;34461;-68
2023/08/26 00:36:09;;;;;;;9.82;5.10;;;;;;;22.80;100.00;99979.88;5590693;31;34494;-68
2023/08/26 00:39:12;;;;;;;11.15;4.97;;;;;;;22.81;100.00;99987.72;5590713;31;33723;-68
2023/08/26 00:42:15;;;;;;;7.85;4.40;;;;;;;22.79;100.00;99989.88;5590725;31;33650;-68
2023/08/26 00:45:18;;;;;;;11.18;4.85;;;;;;;22.78;100.00;99984.72;5590425;31;33826;-68
2023/08/26 00:48:21;;;;;;;10.30;4.90;;;;;;;22.84;100.00;99984.53;5590524;31;33681;-68
2023/08/26 00:51:23;;;;;;;10.07;5.03;;;;;;;22.83;100.00;99979.38;5590577;31;33781;-68
2023/08/26 00:54:27;;;;;;;11.05;4.85;;;;;;;22.81;100.00;99982.31;5590522;31;33795;-68
2023/08/26 00:57:32;;;;;;;9.52;4.97;;;;;;;22.81;100.00;99986.91;5590835;31;33968;-68
2023/08/26 01:00:36;;;;;;;12.43;4.95;;;;;;;22.81;100.00;99984.19;5590444;31;33801;-68
2023/08/26 01:03:39;;;;;;;12.57;5.20;;;;;;;22.83;100.00;99999.13;5590428;31;34441;-68
2023/08/26 01:06:42;;;;;;;8.60;4.72;;;;;;;22.82;100.00;100002.06;5589608;31;33710;-68
2023/08/26 01:09:45;;;;;;;9.02;5.05;;;;;;;22.86;100.00;100009.41;5590410;31;33684;-68
2023/08/26 01:12:59;;;;;;;9.43;5.20;;;;;;;22.95;100.00;100007.88;5590457;31;33693;-68
2023/08/26 01:16:03;;;;;;;10.68;5.20;;;;;;;23.12;100.00;100020.47;5589608;31;33810;-68
2023/08/26 01:19:13;;;;;;;10.15;5.30;;;;;;;23.03;100.00;100019.31;5590238;31;33775;-68
2023/08/26 01:22:19;;;;;;;14.75;5.20;;;;;;;23.05;100.00;100025.25;5590288;31;34042;-68
2023/08/26 01:25:22;;;;;;;9.48;5.30;;;;;;;23.17;100.00;100031.31;5590297;31;33858;-68
2023/08/26 01:28:25;;;;;;;7.22;4.70;;;;;;;23.11;100.00;100025.03;5590214;31;33893;-68
2023/08/26 01:31:31;;;;;;;13.82;5.07;;;;;;;23.18;100.00;100027.53;5590129;31;33757;-68
2023/08/26 01:34:37;;;;;;;10.50;4.97;;;;;;;23.13;100.00;100027.50;5590230;31;33866;-68
2023/08/26 01:37:41;;;;;;;10.20;4.80;;;;;;;22.97;100.00;100029.25;5589879;31;33730;-68
2023/08/26 01:40:51;;;;;;;10.80;5.00;;;;;;;22.93;100.00;100030.84;5590126;31;34401;-68
2023/08/26 01:43:55;;;;;;;10.02;5.35;;;;;;;22.82;100.00;100032.66;5590164;31;33849;-68
2023/08/26 01:46:58;;;;;;;9.32;5.47;;;;;;;22.79;100.00;100019.63;5590429;31;33697;-68
2023/08/26 01:50:01;;;;;;;11.52;5.28;;;;;;;22.73;100.00;100012.53;5590158;31;34501;-67
2023/08/26 01:53:04;;;;;;;11.00;4.80;;;;;;;22.64;100.00;99997.81;5590130;31;33727;-68
2023/08/26 01:56:09;;;;;;;8.43;4.85;;;;;;;22.56;100.00;99989.38;5589227;31;33872;-68
2023/08/26 01:59:11;;;;;;;11.07;4.90;;;;;;;22.54;100.00;99984.22;5590036;31;34054;-68
2023/08/26 02:02:14;;;;;;;12.63;5.05;;;;;;;22.49;100.00;99995.78;5589264;31;34424;-68
2023/08/26 02:05:18;;;;;;;9.50;5.12;;;;;;;22.43;100.00;99991.38;5589212;31;33809;-68
2023/08/26 02:08:20;;;;;;;13.48;4.65;;;;;;;22.30;100.00;99994.50;5590040;31;33845;-68
2023/08/26 02:11:24;;;;;;;15.27;5.43;;;;;;;22.25;100.00;99989.03;5590150;31;34975;-68
2023/08/26 02:14:28;;;;;;;11.90;5.10;;;;;;;22.23;100.00;99983.06;5590278;31;33779;-68
2023/08/26 02:17:32;;;;;;;13.00;5.12;;;;;;;22.22;100.00;99976.03;5589915;31;33990;-68
2023/08/26 02:20:35;;;;;;;9.52;5.47;;;;;;;22.19;100.00;99973.84;5589790;31;33715;-68
2023/08/26 02:23:38;;;;;;;10.05;5.20;;;;;;;22.18;100.00;99972.19;5590099;31;33787;-68
2023/08/26 02:26:42;;;;;;;12.88;5.65;;;;;;;22.18;100.00;99965.97;5589789;31;32874;-68
2023/08/26 02:29:44;;;;;;;13.77;5.28;;;;;;;22.16;100.00;99963.53;5589736;31;33810;-68
2023/08/26 02:32:47;;;;;;;10.73;4.97;;;;;;;22.14;100.00;99972.97;5589719;31;33726;-68
2023/08/26 02:35:50;;;;;;;14.50;6.28;;;;;;;22.06;100.00;99975.06;5588962;31;33904;-68
2023/08/26 02:38:55;;;;;;;10.15;5.53;;;;;;;22.02;100.00;99975.81;5589714;31;34361;-68
2023/08/26 02:41:58;;;;;;;10.18;5.80;;;;;;;21.96;100.00;99974.94;5589657;31;33692;-68
2023/08/26 02:45:04;;;;;;;12.93;5.80;;;;;;;21.93;100.00;99964.63;5588955;31;34440;-69
2023/08/26 02:48:06;;;;;;;11.70;6.03;;;;;;;21.92;100.00;99957.56;5589092;31;34532;-69
2023/08/26 02:51:10;;;;;;;12.57;5.72;;;;;;;21.90;100.00;99961.56;5588659;31;33734;-69
2023/08/26 02:54:12;;;;;;;11.90;6.05;;;;;;;21.88;100.00;99969.91;5589657;31;33835;-68
2023/08/26 02:57:16;;;;;;;11.02;5.62;;;;;;;21.87;100.00;99968.31;5588956;31;32690;-69
2023/08/26 03:00:19;;;;;;;8.73;5.10;;;;;;;21.83;100.00;99974.47;5589377;31;34391;-69
2023/08/26 03:03:22;;;;;;;9.13;5.35;;;;;;;21.86;100.00;99968.56;5589542;31;33755;-69
2023/08/26 03:06:25;;;;;;;12.23;5.20;;;;;;;21.89;100.00;99971.56;5589412;31;33767;-68
2023/08/26 03:09:29;;;;;;;10.77;5.40;;;;;;;22.02;100.00;99973.13;5589368;31;34478;-68
2023/08/26 03:12:31;;;;;;;9.88;5.30;;;;;;;22.00;100.00;99977.94;5589291;31;33826;-69
2023/08/26 03:15:34;;;;;;;12.82;5.65;;;;;;;21.91;100.00;99979.41;5589386;31;33854;-69
2023/08/26 03:18:39;;;;;;;15.18;5.90;;;;;;;21.88;100.00;99980.72;5589403;31;33671;-68
2023/08/26 03:21:42;;;;;;;11.65;5.47;;;;;;;22.04;100.00;99981.75;5589482;31;33767;-68
2023/08/26 03:24:45;;;;;;;14.80;6.40;;;;;;;21.99;100.00;99979.81;5589167;31;33906;-68
2023/08/26 03:27:47;;;;;;;15.50;5.82;;;;;;;21.97;100.00;99981.16;5588433;31;34900;-68
2023/08/26 03:30:50;;;;;;;12.85;5.80;;;;;;;21.92;100.00;99976.47;5588881;31;34425;-68
2023/08/26 03:33:53;;;;;;;15.30;6.20;;;;;;;21.89;100.00;99976.97;5589048;31;34780;-69
2023/08/26 03:36:56;;;;;;;12.07;5.72;;;;;;;21.84;100.00;99974.19;5588986;31;33705;-69
2023/08/26 03:40:00;;;;;;;10.93;5.65;;;;;;;21.83;100.00;99963.66;5588924;31;33681;-69
2023/08/26 03:43:03;;;;;;;16.20;5.57;;;;;;;21.75;100.00;99966.78;5588851;31;33857;-69
2023/08/26 03:46:07;;;;;;;12.48;5.90;;;;;;;21.66;100.00;99974.50;5575148;31;34471;-69
2023/08/26 03:49:11;;;;;;;11.35;5.80;;;;;;;21.60;100.00;99979.03;5588857;31;34758;-68
2023/08/26 03:52:17;;;;;;;11.85;5.62;;;;;;;21.59;100.00;99973.88;5588623;31;33777;-69
2023/08/26 03:55:20;;;;;;;8.75;5.57;;;;;;;21.66;100.00;99971.81;5588651;31;33884;-69
2023/08/26 03:58:22;;;;;;;11.18;5.95;;;;;;;21.57;100.00;99966.03;5588677;31;33836;-68
2023/08/26 04:01:25;;;;;;;14.18;6.18;;;;;;;21.51;100.00;99972.41;5588410;31;34807;-68
2023/08/26 04:04:29;;;;;;;14.73;5.57;;;;;;;21.65;100.00;99975.56;5590527;31;33824;-68
2023/08/26 04:07:31;;;;;;;13.50;5.57;;;;;;;21.74;100.00;99982.16;5590959;31;33919;-69
2023/08/26 04:10:34;;;;;;;11.45;5.60;;;;;;;21.71;100.00;99976.47;5590954;31;33974;-69
2023/08/26 04:13:37;;;;;;;14.18;6.03;;;;;;;21.65;100.00;99978.25;5590949;31;33735;-68
2023/08/26 04:16:41;;;;;;;9.70;5.50;;;;;;;21.65;100.00;99976.38;5590990;31;35003;-69
2023/08/26 04:19:44;;;;;;;14.95;6.40;;;;;;;21.59;100.00;99990.09;5590886;31;33886;-69
2023/08/26 04:22:47;;;;;;;10.35;5.62;;;;;;;21.56;100.00;99987.88;5590100;31;34497;-69
2023/08/26 04:25:52;;;;;;;13.07;6.12;;;;;;;21.74;100.00;99995.66;5589895;31;33828;-69
2023/08/26 04:28:55;;;;;;;11.05;6.10;;;;;;;21.71;100.00;99990.78;5589949;31;33865;-69
2023/08/26 04:31:57;;;;;;;13.15;6.00;;;;;;;21.69;100.00;99996.41;5590731;31;33818;-69
2023/08/26 04:35:01;;;;;;;9.38;5.75;;;;;;;21.77;100.00;100002.47;5590771;31;33760;-69
2023/08/26 04:38:04;;;;;;;9.90;6.15;;;;;;;21.79;100.00;99992.22;5589986;31;34478;-68
2023/08/26 04:41:07;;;;;;;13.23;5.80;;;;;;;21.82;100.00;99994.44;5590961;31;33920;-69
2023/08/26 04:44:11;;;;;;;13.15;6.15;;;;;;;21.96;100.00;99991.13;5590495;31;34472;-68
2023/08/26 04:47:14;;;;;;;9.40;5.80;;;;;;;21.93;100.00;99990.81;5590592;31;34465;-68
2023/08/26 04:50:17;;;;;;;12.48;6.20;;;;;;;21.97;100.00;99990.06;5590575;31;33820;-68
2023/08/26 04:53:19;;;;;;;14.50;6.10;;;;;;;22.03;100.00;99993.63;5590316;31;33884;-69
2023/08/26 04:56:22;;;;;;;10.82;6.30;;;;;;;22.10;100.00;99995.09;5590604;31;34437;-68
2023/08/26 04:59:25;;;;;;;14.82;5.93;;;;;;;22.16;100.00;100005.97;5590431;31;34513;-68
2023/08/26 05:02:28;;;;;;;14.27;5.57;;;;;;;22.29;100.00;99998.28;5590393;31;33904;-68
2023/08/26 05:05:31;;;;;;;18.58;6.28;;;;;;;22.34;100.00;99992.94;5590363;31;34436;-68
2023/08/26 05:08:34;;;;;;;14.25;6.43;;;;;;;22.38;100.00;99987.81;5590221;31;33812;-68
2023/08/26 05:11:38;;;;;;;14.52;6.40;;;;;;;22.45;100.00;99994.66;5590458;31;33796;-69
2023/08/26 05:14:41;;;;;;;11.15;6.65;;;;;;;22.52;100.00;99994.44;5589477;31;34472;-68
2023/08/26 05:17:44;;;;;;;10.88;6.85;;;;;;;22.71;100.00;99995.75;5590279;31;34390;-68
2023/08/26 05:20:47;;;;;;;16.58;7.05;;;;;;;22.60;100.00;99993.19;5590319;31;34564;-68
2023/08/26 05:23:49;;;;;;;13.80;7.70;;;;;;;22.67;100.00;99994.59;5589529;31;33869;-68
2023/08/26 05:26:52;;;;;;;13.68;7.35;;;;;;;22.76;100.00;99993.09;5590040;31;33668;-68
2023/08/26 05:29:55;;;;;;;19.75;7.65;;;;;;;22.91;100.00;99989.69;5590455;31;33881;-68
2023/08/26 05:32:58;;;;;;;13.07;6.97;;;;;;;23.00;100.00;99992.75;5589999;31;33766;-68
2023/08/26 05:36:01;;;;;;;13.88;7.12;;;;;;;23.14;100.00;99986.63;5590065;31;33840;-68
2023/08/26 05:39:04;;;;;;;11.82;6.72;;;;;;;23.33;100.00;99992.47;5590312;31;34378;-68
2023/08/26 05:42:08;;;;;;;14.43;6.50;;;;;;;23.43;100.00;99992.50;5589018;31;34797;-68
2023/08/26 05:45:10;;;;;;;13.90;7.12;;;;;;;23.54;100.00;99996.97;5589709;31;33841;-68
2023/08/26 05:48:13;;;;;;;12.27;6.40;;;;;;;23.65;100.00;100003.25;5589970;31;33819;-68
2023/08/26 05:51:16;;;;;;;9.65;6.22;;;;;;;23.85;100.00;100000.66;5589796;31;33635;-68
2023/08/26 05:54:19;;;;;;;16.60;6.40;;;;;;;23.92;100.00;100006.63;5589569;31;33901;-68
2023/08/26 05:57:22;;;;;;;11.73;6.20;;;;;;;24.10;100.00;100013.50;5589453;31;33867;-68
2023/08/26 06:00:26;;;;;;;14.27;6.62;;;;;;;24.23;100.00;100013.03;5589276;31;34533;-68
2023/08/26 06:03:28;;;;;;;16.98;6.60;;;;;;;24.22;100.00;100008.69;5589413;31;34143;-68
2023/08/26 06:06:32;;;;;;;16.15;6.50;;;;;;;24.25;100.00;100011.66;5589170;31;33864;-68
2023/08/26 06:09:35;;;;;;;17.00;6.00;;;;;;;24.42;100.00;100016.87;5588411;31;34527;-68
2023/08/26 06:12:38;;;;;;;15.13;6.07;;;;;;;24.50;100.00;100013.63;5589333;31;33853;-68
2023/08/26 06:15:42;;;;;;;14.27;6.00;;;;;;;24.60;100.00;100018.25;5589371;31;33739;-68
2023/08/26 06:18:48;;;;;;;13.62;5.80;;;;;;;24.81;100.00;100016.41;5589638;31;33724;-69
2023/08/26 06:21:51;;;;;;;14.00;6.05;;;;;;;25.01;100.00;100021.88;5589684;31;33772;-69
2023/08/26 06:24:54;;;;;;;15.65;5.80;;;;;;;25.10;100.00;100020.25;5587306;31;34571;-69
2023/08/26 06:27:56;;;;;;;14.75;6.20;;;;;;;25.23;100.00;100025.12;5589496;31;33999;-69
2023/08/26 06:31:01;;;;;;;11.63;5.12;;;;;;;25.39;100.00;100029.47;5589348;31;34507;-69
2023/08/26 06:34:04;;;;;;;15.00;6.20;;;;;;;25.50;100.00;100038.41;5588355;31;33717;-69
2023/08/26 06:37:09;;;;;;;11.98;6.03;;;;;;;25.67;100.00;100033.50;5588899;31;33882;-69
2023/08/26 06:40:12;;;;;;;12.30;5.50;;;;;;;25.84;100.00;100036.75;5588252;31;33687;-68
2023/08/26 06:43:15;;;;;;;15.65;5.60;;;;;;;26.12;100.00;100045.34;5588958;31;33833;-69
2023/08/26 06:46:18;;;;;;;12.93;5.60;;;;;;;26.33;100.00;100042.28;5588879;31;34460;-68
2023/08/26 06:49:21;;;;;;;14.10;6.25;;;;;;;26.39;100.00;100038.44;5588598;31;33874;-69
2023/08/26 06:52:24;;;;;;;12.50;5.28;;;;;;;26.66;100.00;100043.47;5588523;31;33955;-69
2023/08/26 06:55:26;;;;;;;12.40;5.75;;;;;;;27.25;100.00;100043.28;5589143;31;33790;-69
2023/08/26 06:58:29;;;;;;;16.75;5.55;;;;;;;27.89;100.00;100044.88;5589042;31;33867;-69
2023/08/26 07:01:34;;;;;;;13.75;5.03;;;;;;;28.71;91.50;100044.69;5588726;31;34413;-70
2023/08/26 07:04:37;;;;;;;12.37;5.30;;;;;;;29.42;88.42;100047.13;5589438;31;33808;-71
2023/08/26 07:07:39;;;;;;;11.52;4.70;;;;;;;30.13;83.77;100045.78;5589135;31;33825;-70
2023/08/26 07:10:44;;;;;;;12.00;5.57;;;;;;;30.97;76.01;100048.88;5588964;31;33734;-70
2023/08/26 07:13:47;;;;;;;13.25;5.10;;;;;;;31.46;70.63;100040.53;5589036;31;33123;-70
2023/08/26 07:16:50;;;;;;;12.20;5.57;;;;;;;31.87;64.55;100051.22;5588815;31;33702;-70
2023/08/26 07:19:53;;;;;;;12.70;5.55;;;;;;;31.12;68.84;100053.19;5588930;31;33859;-70
2023/08/26 07:22:56;;;;;;;13.05;5.10;;;;;;;31.64;67.53;100049.66;5588962;31;34547;-70
2023/08/26 07:26:01;;;;;;;11.90;5.35;;;;;;;32.27;60.97;100056.72;5588795;31;33797;-70
2023/08/26 07:29:04;;;;;;;12.80;5.50;;;;;;;32.32;61.21;100054.63;5588173;31;33984;-70
2023/08/26 07:32:06;;;;;;;18.08;5.07;;;;;;;31.78;61.77;100038.59;5589114;31;33791;-70
2023/08/26 07:35:10;;;;;;;14.90;5.60;;;;;;;32.62;61.36;100039.16;5589013;31;33744;-70
2023/08/26 07:38:13;;;;;;;10.73;5.47;;;;;;;33.31;57.85;100041.09;5588539;31;33861;-71
2023/08/26 07:41:16;;;;;;;13.32;5.40;;;;;;;32.89;55.93;100043.53;5588995;31;34611;-70
2023/08/26 07:44:18;;;;;;;12.45;5.55;;;;;;;32.32;57.74;100034.59;5581153;31;260244;-71
2023/08/26 07:47:21;;;;;;;16.45;5.72;;;;;;;33.38;55.32;100050.47;5589110;31;33729;-71
2023/08/26 07:50:24;;;;;;;15.07;5.85;;;;;;;33.96;53.92;100041.53;5587926;31;33718;-70
2023/08/26 07:53:27;;;;;;;12.57;5.53;;;;;;;35.12;50.38;100038.94;5588592;31;34011;-71
2023/08/26 07:56:29;;;;;;;19.80;5.55;;;;;;;34.80;50.81;100048.81;5588395;31;33244;-71
2023/08/26 07:59:33;;;;;;;10.32;5.25;;;;;;;34.75;49.78;100035.25;5588172;31;33182;-71
2023/08/26 08:02:35;;;;;;;10.20;5.60;;;;;;;34.70;51.65;100024.41;5588444;31;33744;-71
2023/08/26 08:05:38;;;;;;;16.05;5.72;;;;;;;35.50;48.83;100032.41;5588908;31;32757;-72
2023/08/26 08:08:41;;;;;;;10.80;5.43;;;;;;;36.56;45.38;100028.38;5588295;31;33679;-71
2023/08/26 08:11:44;;;;;;;12.20;5.50;;;;;;;36.99;44.49;100032.41;5588303;31;34099;-72
2023/08/26 08:14:46;;;;;;;10.70;5.53;;;;;;;36.34;45.01;100020.63;5587887;31;33840;-72
2023/08/26 08:17:49;;;;;;;14.00;5.22;;;;;;;37.30;43.70;100013.13;5587942;31;33671;-71
2023/08/26 08:20:52;;;;;;;9.40;5.25;;;;;;;37.21;41.56;100011.69;5587980;31;33759;-71
2023/08/26 08:23:55;;;;;;;14.70;5.20;;;;;;;37.21;42.12;100015.28;5588416;31;34585;-71
2023/08/26 08:26:58;;;;;;;12.98;5.60;;;;;;;36.60;43.85;100020.19;5587744;31;34767;-71
2023/08/26 08:30:02;;;;;;;10.07;5.53;;;;;;;37.79;43.11;100015.59;5587599;31;33804;-70
2023/08/26 08:33:05;;;;;;;10.65;5.32;;;;;;;38.63;40.66;100021.53;5587736;31;33425;-71
2023/08/26 08:36:08;;;;;;;10.60;4.85;;;;;;;38.81;40.36;100017.13;5587963;31;34552;-71
2023/08/26 08:39:10;;;;;;;10.85;5.28;;;;;;;37.97;38.26;100016.00;5587607;31;33911;-72
2023/08/26 08:42:17;;;;;;;11.15;5.03;;;;;;;38.55;38.36;100016.97;5587429;31;34808;-71
2023/08/26 08:45:20;;;;;;;10.57;5.60;;;;;;;38.06;39.58;100014.69;5587493;31;34068;-71
2023/08/26 08:48:23;;;;;;;11.10;5.07;;;;;;;37.65;37.80;100016.06;5588298;31;33980;-71
2023/08/26 08:51:27;;;;;;;12.70;5.40;;;;;;;38.27;37.53;100011.59;5590634;31;34367;-71
2023/08/26 08:54:32;;;;;;;16.98;5.07;;;;;;;37.95;37.25;100001.72;5590052;31;34535;-71
2023/08/26 08:57:35;;;;;;;14.25;5.40;;;;;;;38.80;36.79;100011.94;5590172;31;33830;-71
2023/08/26 09:00:38;;;;;;;15.38;5.85;;;;;;;39.45;35.67;100005.31;5590251;31;33755;-69
2023/08/26 09:03:41;;;;;;;13.27;5.53;;;;;;;40.00;33.79;99993.91;5590304;31;33782;-72
2023/08/26 09:06:44;;;;;;;12.02;5.53;;;;;;;39.37;35.52;99991.69;5589714;31;33763;-71
2023/08/26 09:09:47;;;;;;;11.90;5.28;;;;;;;39.41;35.67;99984.22;5590281;31;34803;-72
2023/08/26 09:13:05;;;;;;;15.40;5.90;;;;;;;39.09;36.55;99984.44;5590324;31;33691;-72
2023/08/26 09:16:07;;;;;;;10.48;5.37;;;;;;;38.31;36.45;99983.97;5590384;31;34409;-71
2023/08/26 09:19:13;;;;;;;9.38;5.30;;;;;;;38.73;36.32;99975.78;5589593;31;34361;-71
2023/08/26 09:22:16;;;;;;;10.75;5.82;;;;;;;38.34;36.51;99978.50;5590151;31;33736;-72
2023/08/26 09:25:19;;;;;;;10.27;5.53;;;;;;;39.13;36.80;99968.63;5589535;31;33716;-72
2023/08/26 09:28:23;;;;;;;12.32;5.45;;;;;;;39.69;34.83;99962.47;5590094;31;34477;-71
2023/08/26 09:31:26;;;;;;;12.70;5.70;;;;;;;39.07;36.52;99961.00;5576619;31;33936;-73
2023/08/26 09:34:30;;;;;;;12.90;5.72;;;;;;;38.75;36.63;99970.66;5590049;31;34465;-71
2023/08/26 09:37:33;;;;;;;10.95;6.18;;;;;;;38.23;36.69;99966.38;5590128;31;34431;-72
2023/08/26 09:40:38;;;;;;;26.95;5.93;;;;;;;38.36;37.41;99958.72;5590106;31;33754;-71
2023/08/26 09:43:43;;;;;;;12.52;5.85;;;;;;;38.81;36.51;99967.22;5589973;31;33699;-70
2023/08/26 09:46:46;;;;;;;15.38;5.60;;;;;;;40.28;34.64;99961.78;5590205;31;33874;-72
2023/08/26 09:49:49;;;;;;;9.27;5.50;;;;;;;41.08;33.46;99965.16;5590204;31;33770;-70
2023/08/26 09:52:52;;;;;;;14.87;5.87;;;;;;;41.17;32.52;99966.44;5590165;31;33740;-71
2023/08/26 09:55:57;;;;;;;10.48;5.50;;;;;;;41.12;32.42;99971.53;5590196;31;34372;-70
2023/08/26 09:59:00;;;;;;;8.77;5.60;;;;;;;39.53;35.11;99959.84;5589920;31;33792;-72
2023/08/26 10:02:19;;;;;;;13.10;5.78;;;;;;;38.13;36.63;99961.41;5589939;31;34396;-71
2023/08/26 10:05:25;;;;;;;14.07;6.15;;;;;;;36.56;39.03;99964.81;5589620;31;33820;-71
2023/08/26 10:08:32;;;;;;;20.10;6.50;;;;;;;35.58;40.91;99948.72;5589591;31;34383;-71
2023/08/26 10:11:39;;;;;;;13.10;6.10;;;;;;;34.73;42.97;99941.06;5589868;31;33737;-71
2023/08/26 10:14:45;;;;;;;15.10;6.40;;;;;;;34.44;44.22;99946.66;5589073;31;33729;-70
2023/08/26 10:17:51;;;;;;;11.38;6.32;;;;;;;34.37;45.22;99938.13;5589760;31;33873;-71
2023/08/26 10:20:55;;;;;;;12.30;7.03;;;;;;;34.36;44.42;99931.81;5589874;31;34370;-71
2023/08/26 10:23:58;;;;;;;8.45;6.00;;;;;;;34.18;44.45;99927.56;5589047;31;34394;-71
2023/08/26 10:27:02;;;;;;;12.65;6.12;;;;;;;34.21;46.08;99923.34;5589772;31;34415;-71
2023/08/26 10:30:06;;;;;;;13.10;5.95;;;;;;;34.43;43.53;99926.56;5589105;31;33779;-69
2023/08/26 10:33:09;;;;;;;12.23;5.70;;;;;;;34.19;42.14;99918.19;5589758;31;34738;-71
2023/08/26 10:36:16;;;;;;;13.20;6.60;;;;;;;34.15;42.79;99913.66;5589815;31;33794;-71
2023/08/26 10:39:19;;;;;;;17.58;5.55;;;;;;;34.43;42.18;99901.75;5590213;31;33814;-69
2023/08/26 10:42:23;;;;;;;17.87;5.60;;;;;;;34.89;40.77;99910.91;5589988;31;33691;-70
2023/08/26 10:45:26;;;;;;;14.45;5.90;;;;;;;37.07;37.67;99904.25;5589479;31;33750;-72
2023/08/26 10:48:29;;;;;;;11.00;5.60;;;;;;;39.20;34.21;99908.91;5589718;31;34419;-69
2023/08/26 10:51:35;;;;;;;14.48;5.85;;;;;;;40.44;31.91;99914.31;5589870;31;33836;-69
2023/08/26 10:54:42;;;;;;;8.98;5.37;;;;;;;41.29;30.36;99914.44;5589518;31;33859;-70
2023/08/26 10:58:13;;;;;;;8.65;5.53;;;;;;;42.41;29.56;99911.56;5576055;31;33807;-70
2023/08/26 11:01:17;;;;;;;8.85;5.37;;;;;;;42.57;28.79;99916.00;5584589;31;33767;-70
2023/08/26 11:04:20;;;;;;;10.80;5.40;;;;;;;42.34;29.71;99902.41;5588638;31;34496;-73
2023/08/26 11:07:23;;;;;;;12.95;5.68;;;;;;;42.63;29.41;99894.91;5589484;31;33789;-70
2023/08/26 11:10:27;;;;;;;14.98;5.90;;;;;;;42.98;28.18;99899.78;5589209;31;33977;-70
2023/08/26 11:13:30;;;;;;;18.95;5.45;;;;;;;43.79;26.83;99888.56;5588408;31;34791;-70
2023/08/26 11:16:33;;;;;;;11.20;5.40;;;;;;;43.72;26.59;99883.00;5589423;31;34476;-70
2023/08/26 11:19:37;;;;;;;15.55;5.35;;;;;;;45.18;25.56;99891.47;5589290;31;34609;-70
2023/08/26 11:22:40;;;;;;;8.73;5.28;;;;;;;44.98;25.85;99889.22;5589234;31;34437;-71
2023/08/26 11:25:43;;;;;;;11.05;4.93;;;;;;;45.42;25.01;99882.06;5589209;31;34202;-71
2023/08/26 11:28:49;;;;;;;14.85;5.25;;;;;;;45.54;25.13;99875.97;5589112;31;34520;-70
2023/08/26 11:31:55;;;;;;;14.23;4.93;;;;;;;45.91;24.63;99871.56;5589125;31;34402;-71
2023/08/26 11:34:57;;;;;;;11.70;5.03;;;;;;;45.25;24.81;99861.41;5588945;31;33723;-71
2023/08/26 11:38:00;;;;;;;10.48;4.90;;;;;;;44.97;25.66;99858.84;5588303;31;33867;-70
2023/08/26 11:41:04;;;;;;;11.32;5.05;;;;;;;45.78;25.07;99860.09;5589221;31;33789;-71
2023/08/26 11:44:13;;;;;;;10.02;4.97;;;;;;;46.57;23.57;99855.91;5588691;31;33815;-71
2023/08/26 11:47:16;;;;;;;9.40;4.53;;;;;;;46.83;22.64;99864.69;5588641;31;33740;-69
2023/08/26 11:50:22;;;;;;;16.87;4.60;;;;;;;45.45;23.67;99864.44;5588796;31;33455;-70
2023/08/26 11:53:24;;;;;;;13.40;4.70;;;;;;;45.26;23.96;99853.81;5589040;31;33742;-71
2023/08/26 11:56:27;;;;;;;11.32;4.35;;;;;;;46.29;23.43;99855.50;5588887;31;33823;-71
2023/08/26 11:59:38;;;;;;;10.80;4.60;;;;;;;46.59;22.87;99856.25;5588809;31;33825;-70
2023/08/26 12:02:52;;;;;;;11.30;4.87;;;;;;;47.76;21.43;99851.44;5588749;31;33751;-70
2023/08/26 12:05:55;;;;;;;16.35;4.62;;;;;;;47.10;22.13;99855.06;5588698;31;33822;-71
2023/08/26 12:09:00;;;;;;;14.68;4.95;;;;;;;46.13;22.45;99850.47;5588590;31;34611;-70
2023/08/26 12:12:06;;;;;;;12.77;4.75;;;;;;;46.41;22.71;99844.47;5587900;31;33871;-71
2023/08/26 12:15:12;;;;;;;20.65;5.03;;;;;;;47.13;22.42;99830.12;5587921;31;34379;-70
2023/08/26 12:18:15;;;;;;;12.93;4.62;;;;;;;47.03;22.23;99834.72;5588614;31;34545;-71
2023/08/26 12:21:17;;;;;;;11.45;4.87;;;;;;;46.45;22.61;99842.41;5588509;31;35015;-71
2023/08/26 12:24:23;;;;;;;16.08;4.70;;;;;;;47.06;22.55;99831.06;5590746;31;33778;-71
2023/08/26 12:27:26;;;;;;;12.30;4.85;;;;;;;46.98;21.70;99838.81;5590945;31;34488;-70
2023/08/26 12:30:29;;;;;;;14.87;4.80;;;;;;;47.07;22.34;99836.22;5591190;31;33783;-71
2023/08/26 12:33:32;;;;;;;16.33;5.03;;;;;;;46.53;22.82;99837.50;5590894;31;33754;-70
2023/08/26 12:36:40;;;;;;;10.88;4.75;;;;;;;46.17;22.27;99840.00;5591078;31;33849;-71
2023/08/26 12:39:42;;;;;;;11.57;5.00;;;;;;;46.10;23.91;99838.06;5590801;31;33889;-71
2023/08/26 12:42:45;;;;;;;13.15;4.80;;;;;;;46.74;22.94;99842.00;5590869;31;33906;-70
2023/08/26 12:45:48;;;;;;;12.27;5.15;;;;;;;47.90;20.93;99830.66;5590521;31;33697;-70
2023/08/26 12:48:53;;;;;;;8.43;4.57;;;;;;;48.72;20.64;99827.63;5590730;31;34010;-71
2023/08/26 12:51:57;;;;;;;10.25;4.70;;;;;;;49.31;19.88;99837.81;5590669;31;33988;-70
2023/08/26 12:55:00;;;;;;;7.60;4.28;;;;;;;48.61;20.59;99823.47;5590538;31;33845;-71
2023/08/26 12:58:05;;;;;;;14.27;4.95;;;;;;;47.62;21.24;99812.38;5590542;31;33702;-71
2023/08/26 13:01:08;;;;;;;6.68;4.70;;;;;;;47.80;21.74;99823.25;5590706;31;34399;-71
2023/08/26 13:04:11;;;;;;;14.60;4.97;;;;;;;48.66;20.51;99815.28;5590493;31;33978;-72
2023/08/26 13:07:16;;;;;;;17.65;5.10;;;;;;;48.46;20.32;99814.59;5590680;31;33855;-72
2023/08/26 13:10:18;;;;;;;14.65;5.37;;;;;;;47.71;21.56;99808.97;5590501;31;33751;-71
2023/08/26 13:13:21;;;;;;;10.40;4.87;;;;;;;48.92;20.24;99804.22;5590638;31;34450;-70
2023/08/26 13:16:24;;;;;;;13.00;4.55;;;;;;;47.43;21.67;99801.88;5590361;31;34812;-70
2023/08/26 13:19:27;;;;;;;8.90;4.65;;;;;;;47.37;21.60;99798.00;5589735;31;33697;-71
2023/08/26 13:22:29;;;;;;;11.73;4.53;;;;;;;47.11;22.11;99797.63;5590438;31;33993;-72
2023/08/26 13:25:33;;;;;;;10.98;5.28;;;;;;;47.08;21.55;99790.06;5590389;31;34826;-72
2023/08/26 13:28:35;;;;;;;9.52;4.72;;;;;;;47.42;22.33;99795.47;5590369;31;34432;-71
2023/08/26 13:31:38;;;;;;;8.73;4.40;;;;;;;47.83;20.73;99789.44;5590240;31;33745;-72
2023/08/26 13:34:41;;;;;;;14.38;4.80;;;;;;;47.57;21.84;99773.50;5589778;31;33707;-71
2023/08/26 13:37:44;;;;;;;14.10;4.57;;;;;;;46.93;21.50;99771.91;5589635;31;33845;-71
2023/08/26 13:40:47;;;;;;;12.15;4.53;;;;;;;47.54;21.41;99780.00;5590274;31;33775;-72
2023/08/26 13:43:50;;;;;;;12.40;5.00;;;;;;;47.54;21.11;99771.56;5589739;31;34386;-70
2023/08/26 13:46:53;;;;;;;13.05;5.03;;;;;;;47.48;21.48;99784.53;5590470;31;33709;-71
2023/08/26 13:49:56;;;;;;;12.32;4.53;;;;;;;47.80;21.14;99775.44;5590012;31;33726;-71
2023/08/26 13:52:59;;;;;;;15.30;5.05;;;;;;;47.04;21.56;99766.09;5589996;31;33831;-71
2023/08/26 13:56:02;;;;;;;13.95;5.00;;;;;;;46.53;22.99;99765.31;5590104;31;34603;-70
2023/08/26 13:59:04;;;;;;;10.73;5.00;;;;;;;47.10;22.65;99758.75;5590100;31;33733;-71
2023/08/26 14:02:08;;;;;;;8.30;4.85;;;;;;;47.73;21.64;99767.19;5589929;31;33867;-72
2023/08/26 14:05:14;;;;;;;20.92;4.87;;;;;;;45.08;23.32;99766.34;5589919;31;33836;-72
2023/08/26 14:08:17;;;;;;;11.80;5.10;;;;;;;44.78;23.52;99753.84;5589826;31;33040;-72